Time;durP1;ratioP1;P1;durP2;ratioP2;P2;SDS_P1;SDS_P2;PMS_P1;PMS_P2;Temp;Humidity;BMP_temperature;BMP_pressure;BME280_temperature;BME280_humidity;BME280_pressure;Samples;Min_cycle;Max_cycle;Signal;HPM_P1;HPM_P2
2021/03/06 00:02:18;;;;;;;92.00;36.97;;;;;;;-2.53;81.60;100156.89;4168022;84;21264;-82
2021/03/06 00:08:23;;;;;;;87.00;38.13;;;;;;;-2.72;82.05;100161.08;4175251;84;21696;-83
2021/03/06 00:14:23;;;;;;;97.47;38.67;;;;;;;-2.78;82.15;100165.63;4165979;84;21239;-82
2021/03/06 00:20:25;;;;;;;98.67;39.57;;;;;;;-2.77;82.05;100171.24;4169150;84;21674;-83
2021/03/06 00:26:26;;;;;;;97.33;38.30;;;;;;;-2.71;82.08;100177.45;4172874;84;21895;-81
2021/03/06 00:32:28;;;;;;;93.37;40.33;;;;;;;-2.80;82.13;100177.67;4163386;84;21207;-82
2021/03/06 00:38:30;;;;;;;88.50;35.60;;;;;;;-2.83;82.20;100170.13;4198815;84;21214;-81
2021/03/06 00:44:31;;;;;;;92.17;40.40;;;;;;;-2.89;82.59;100160.45;4173946;84;21370;-82
2021/03/06 00:50:36;;;;;;;97.03;39.17;;;;;;;-2.89;82.45;100165.81;4192757;84;21254;-81
2021/03/06 00:56:39;;;;;;;106.35;40.28;;;;;;;-2.81;82.54;100162.64;4178554;84;21184;-82
2021/03/06 01:02:41;;;;;;;95.30;39.73;;;;;;;-2.82;82.14;100165.87;4163976;84;21647;-83
2021/03/06 01:08:43;;;;;;;90.30;40.13;;;;;;;-2.82;82.36;100161.05;4165702;85;21785;-82
2021/03/06 01:14:50;;;;;;;95.97;40.47;;;;;;;-2.82;82.37;100163.72;4167691;85;21219;-83
2021/03/06 01:20:53;;;;;;;102.17;40.57;;;;;;;-2.87;82.36;100163.16;4173805;84;21184;-83
2021/03/06 01:26:55;;;;;;;90.90;39.40;;;;;;;-2.96;82.15;100169.27;4174135;84;21202;-83
2021/03/06 01:32:56;;;;;;;95.30;39.03;;;;;;;-3.17;82.37;100175.02;4183194;84;21910;-85
2021/03/06 01:38:58;;;;;;;107.63;45.50;;;;;;;-3.17;82.68;100187.06;4196403;84;21222;-83
2021/03/06 01:45:00;;;;;;;83.67;39.07;;;;;;;-3.12;82.54;100191.65;4179760;84;21337;-83
2021/03/06 01:51:01;;;;;;;105.97;43.70;;;;;;;-3.07;82.68;100199.73;4201047;84;21195;-83
2021/03/06 01:57:04;;;;;;;111.37;48.70;;;;;;;-3.03;82.56;100197.61;4177445;84;21826;-85
2021/03/06 02:03:06;;;;;;;119.50;48.03;;;;;;;-3.05;82.40;100193.04;4176658;84;21224;-83
2021/03/06 02:09:07;;;;;;;106.80;46.67;;;;;;;-3.06;82.50;100198.12;4191650;84;21361;-85
2021/03/06 02:15:30;;;;;;;119.13;49.73;;;;;;;-3.15;82.37;100199.68;4189497;84;22332;-83
2021/03/06 02:22:09;;;;;;;110.30;47.60;;;;;;;-3.21;82.61;100198.03;4183515;84;21211;-83
2021/03/06 02:28:33;;;;;;;100.77;42.07;;;;;;;-3.18;82.59;100193.50;4162962;83;21136;-83
2021/03/06 02:34:39;;;;;;;109.07;45.37;;;;;;;-3.18;82.64;100200.72;4164624;84;21243;-84
2021/03/06 02:40:43;;;;;;;102.58;46.37;;;;;;;-3.24;82.77;100197.17;4163105;84;21655;-83
2021/03/06 02:46:47;;;;;;;102.20;44.27;;;;;;;-3.19;82.96;100210.61;4167665;84;21231;-84
2021/03/06 02:52:48;;;;;;;101.70;43.17;;;;;;;-3.21;82.74;100203.39;4150649;84;21191;-84
2021/03/06 02:59:04;;;;;;;101.30;40.33;;;;;;;-3.35;83.10;100204.33;4190436;84;21209;-83
2021/03/06 03:05:31;;;;;;;78.10;36.25;;;;;;;-3.32;83.19;100209.17;4177983;84;21230;-82
2021/03/06 03:12:03;;;;;;;77.43;35.00;;;;;;;-3.30;83.32;100215.08;4169189;84;21349;-84
2021/03/06 03:18:06;;;;;;;86.33;36.10;;;;;;;-3.27;83.30;100219.11;4168651;84;21860;-84
2021/03/06 03:24:14;;;;;;;79.10;32.50;;;;;;;-3.28;83.39;100222.86;4160074;84;21215;-86
2021/03/06 03:30:19;;;;;;;66.33;31.03;;;;;;;-3.24;83.30;100230.65;4175555;84;21211;-84
2021/03/06 03:36:25;;;;;;;74.43;34.20;;;;;;;-3.28;83.32;100238.93;4183274;84;21234;-84
2021/03/06 03:42:27;;;;;;;70.70;31.30;;;;;;;-3.26;83.44;100248.31;4166572;84;21341;-84
2021/03/06 03:48:29;;;;;;;74.73;31.63;;;;;;;-3.23;83.54;100241.66;4156346;84;22358;-84
2021/03/06 03:54:32;;;;;;;81.17;33.13;;;;;;;-3.23;83.52;100245.13;4172231;84;21217;-83
2021/03/06 04:00:34;;;;;;;71.07;30.20;;;;;;;-3.22;83.61;100254.79;4182627;84;21265;-84
2021/03/06 04:06:36;;;;;;;77.33;34.07;;;;;;;-3.23;83.77;100251.03;4170923;84;21197;-83
2021/03/06 04:12:40;;;;;;;79.47;32.70;;;;;;;-3.23;83.64;100258.52;4164651;84;21707;-85
2021/03/06 04:18:41;;;;;;;79.80;35.67;;;;;;;-3.24;83.67;100264.13;4180963;84;21179;-82
2021/03/06 04:24:43;;;;;;;79.77;32.83;;;;;;;-3.26;83.71;100266.27;4170178;84;21207;-83
2021/03/06 04:30:44;;;;;;;81.63;34.77;;;;;;;-3.26;83.74;100272.41;4171007;84;21227;-84
2021/03/06 04:36:46;;;;;;;71.33;32.47;;;;;;;-3.27;83.74;100272.14;4180392;84;21183;-83
2021/03/06 04:42:48;;;;;;;71.47;32.77;;;;;;;-3.26;83.74;100276.43;4168876;84;21611;-83
2021/03/06 04:48:49;;;;;;;73.73;33.27;;;;;;;-3.28;83.63;100273.74;4169432;84;21966;-84
2021/03/06 04:54:51;;;;;;;78.00;34.67;;;;;;;-3.28;83.71;100287.13;4174112;84;21611;-82
2021/03/06 05:00:53;;;;;;;75.73;36.97;;;;;;;-3.32;83.84;100296.19;4173223;84;21235;-83
2021/03/06 05:06:55;;;;;;;70.23;33.00;;;;;;;-3.35;83.76;100307.94;4169070;84;21365;-85
2021/03/06 05:12:57;;;;;;;73.97;32.77;;;;;;;-3.36;83.84;100309.82;4170249;84;21706;-84
2021/03/06 05:18:59;;;;;;;76.50;34.80;;;;;;;-3.33;84.13;100319.20;4172156;84;21226;-84
2021/03/06 05:25:01;;;;;;;81.73;36.33;;;;;;;-3.42;84.12;100316.19;4167360;84;21709;-84
2021/03/06 05:31:03;;;;;;;74.57;33.07;;;;;;;-3.49;84.10;100326.27;4162226;84;21203;-84
2021/03/06 05:37:05;;;;;;;76.43;36.57;;;;;;;-3.52;84.27;100328.63;4162811;84;21196;-84
2021/03/06 05:43:07;;;;;;;74.87;34.17;;;;;;;-3.64;84.40;100331.98;4161788;84;21566;-83
2021/03/06 05:49:09;;;;;;;73.10;34.27;;;;;;;-3.57;84.46;100329.39;4160685;84;21152;-84
2021/03/06 05:55:13;;;;;;;68.43;32.60;;;;;;;-3.59;84.85;100335.55;4172882;84;21172;-83
2021/03/06 06:01:16;;;;;;;72.93;32.37;;;;;;;-3.33;84.90;100347.32;4132601;84;21306;-84
2021/03/06 06:07:19;;;;;;;62.93;33.13;;;;;;;-3.11;84.76;100352.63;4161763;84;21357;-83
2021/03/06 06:13:22;;;;;;;65.73;34.30;;;;;;;-2.93;84.61;100354.44;4149844;84;21706;-83
2021/03/06 06:19:24;;;;;;;69.73;35.00;;;;;;;-2.76;84.65;100374.41;4163691;84;21754;-83
2021/03/06 06:25:33;;;;;;;79.30;38.20;;;;;;;-2.67;84.46;100380.39;4164714;84;21170;-83
2021/03/06 06:31:34;;;;;;;67.47;35.47;;;;;;;-2.35;85.12;100383.06;4149136;84;21199;-84
2021/03/06 06:37:36;;;;;;;76.60;36.80;;;;;;;-1.80;84.78;100390.10;4163962;84;21635;-83
2021/03/06 06:43:38;;;;;;;77.13;37.33;;;;;;;-1.42;84.89;100396.47;4163586;84;21177;-83
2021/03/06 06:49:46;;;;;;;67.20;35.00;;;;;;;-1.03;84.32;100404.91;4160703;84;21357;-83
2021/03/06 06:55:48;;;;;;;81.37;37.50;;;;;;;-1.03;83.53;100416.48;4158403;84;21198;-83
2021/03/06 07:01:50;;;;;;;73.63;34.90;;;;;;;-1.25;83.49;100422.59;4160483;84;21336;-84
2021/03/06 07:07:51;;;;;;;68.70;34.83;;;;;;;-1.28;83.68;100437.10;4159857;84;21778;-83
2021/03/06 07:13:53;;;;;;;71.30;36.13;;;;;;;-1.05;83.88;100435.30;4160583;84;21758;-84
2021/03/06 07:19:54;;;;;;;67.77;33.60;;;;;;;-0.67;84.06;100434.30;4161143;84;21377;-85
2021/03/06 07:25:59;;;;;;;61.53;33.87;;;;;;;-0.34;83.54;100444.56;4160023;84;21766;-84
2021/03/06 07:32:03;;;;;;;61.97;33.53;;;;;;;-0.05;83.38;100446.97;4162739;84;21658;-85
2021/03/06 07:38:17;;;;;;;62.30;30.82;;;;;;;0.13;83.10;100442.09;4164457;84;21202;-85
2021/03/06 07:44:23;;;;;;;61.17;33.50;;;;;;;0.43;82.79;100438.82;4171591;84;21417;-84
2021/03/06 07:50:30;;;;;;;65.65;32.33;;;;;;;0.75;83.19;100446.54;4227909;80;38511;-85
2021/03/06 07:56:31;;;;;;;63.17;31.65;;;;;;;1.06;82.95;100446.66;4220129;83;21188;-86
2021/03/06 08:02:39;;;;;;;61.23;30.35;;;;;;;1.51;82.67;100442.34;4230886;83;21358;-85
2021/03/06 08:08:47;;;;;;;52.17;25.68;;;;;;;1.97;82.08;100440.91;4220583;82;21183;-84
2021/03/06 08:14:48;;;;;;;49.50;24.60;;;;;;;2.30;80.15;100449.48;4248617;83;21361;-84
2021/03/06 08:20:51;;;;;;;53.68;26.62;;;;;;;2.53;80.22;100456.83;4123990;83;21447;-83
2021/03/06 08:27:07;;;;;;;49.77;27.65;;;;;;;3.00;80.04;100451.95;4183575;83;21227;-83
2021/03/06 08:33:16;;;;;;;45.40;25.35;;;;;;;3.37;78.48;100455.25;4153735;84;21160;-84
2021/03/06 08:39:19;;;;;;;46.45;25.97;;;;;;;3.61;77.71;100447.30;4191094;84;22340;-83
2021/03/06 08:45:27;;;;;;;47.85;24.60;;;;;;;3.53;76.70;100457.97;4174213;84;22008;-84
2021/03/06 08:51:29;;;;;;;41.50;23.10;;;;;;;3.92;75.93;100452.48;4177667;84;21211;-83
2021/03/06 08:57:36;;;;;;;41.20;21.97;;;;;;;4.71;76.11;100459.48;4169173;84;21215;-84
2021/03/06 09:03:37;;;;;;;;;;;;;;;4.97;74.07;100456.50;4172851;84;21346;-84
2021/03/06 09:09:41;;;;;;;34.43;18.10;;;;;;;5.72;73.77;100453.47;4157221;84;20211;-84
2021/03/06 09:15:50;;;;;;;32.83;17.73;;;;;;;6.74;72.87;100453.86;4156906;84;21194;-85
2021/03/06 09:22:05;;;;;;;44.88;19.57;;;;;;;6.67;72.20;100464.41;4160482;84;21209;-85
2021/03/06 09:28:11;;;;;;;32.23;16.57;;;;;;;6.53;71.79;100452.83;4130793;84;21240;-84
2021/03/06 09:34:13;;;;;;;20.83;11.53;;;;;;;6.98;70.55;100453.73;4127074;84;21215;-85
2021/03/06 09:40:22;;;;;;;24.07;11.05;;;;;;;7.42;69.42;100460.29;4113849;85;21167;-86
2021/03/06 09:46:27;;;;;;;21.48;10.68;;;;;;;8.11;69.02;100456.21;4128969;84;21268;-86
2021/03/06 09:52:33;;;;;;;21.23;10.32;;;;;;;8.34;68.53;100457.63;4121549;84;21208;-87
2021/03/06 09:58:37;;;;;;;18.98;9.43;;;;;;;8.83;66.42;100455.63;4119368;85;21221;-88
2021/03/06 10:04:39;;;;;;;20.72;11.93;;;;;;;8.74;63.18;100454.88;4121963;84;21795;-88
2021/03/06 10:10:41;;;;;;;18.15;9.93;;;;;;;7.85;63.32;100459.77;4108404;85;21217;-88
2021/03/06 10:16:56;;;;;;;21.77;11.28;;;;;;;8.20;63.75;100471.99;4114974;85;21240;-88
2021/03/06 10:22:57;;;;;;;20.57;9.88;;;;;;;8.48;63.17;100468.59;4131879;85;21724;-87
2021/03/06 10:29:03;;;;;;;19.27;10.68;;;;;;;7.72;61.87;100477.07;4245920;82;21151;-87
2021/03/06 10:35:07;;;;;;;21.35;11.15;;;;;;;6.52;61.73;100481.13;4238572;82;21137;-87
2021/03/06 10:41:17;;;;;;;24.67;12.58;;;;;;;5.91;61.46;100479.14;4236474;82;21163;-87
2021/03/06 10:54:28;;;;;;;23.52;12.85;;;;;;;6.42;62.19;100482.22;4491722;78;21148;-86
2021/03/06 11:00:31;;;;;;;21.48;11.90;;;;;;;7.30;60.68;100474.28;4489274;78;21164;-85
2021/03/06 11:06:43;;;;;;;24.57;12.13;;;;;;;7.79;59.11;100456.16;4486139;78;21172;-87
2021/03/06 11:13:09;;;;;;;22.62;11.48;;;;;;;7.57;58.88;100453.58;4291220;81;21259;-86
2021/03/06 11:19:27;;;;;;;21.60;11.33;;;;;;;6.72;59.53;100455.53;4313574;81;21209;-87
2021/03/06 11:25:29;;;;;;;24.05;12.58;;;;;;;7.05;59.93;100447.25;4308470;81;21219;-88
2021/03/06 11:31:32;;;;;;;22.73;12.85;;;;;;;7.35;59.69;100431.38;4321399;81;21838;-88
2021/03/06 11:37:34;;;;;;;27.05;12.07;;;;;;;7.15;56.51;100427.90;4455879;78;21169;-88
2021/03/06 11:43:36;;;;;;;22.80;12.47;;;;;;;7.52;56.67;100416.39;4490285;78;21159;-88
2021/03/06 11:49:37;;;;;;;22.35;11.85;;;;;;;6.64;57.21;100417.42;4488845;78;21307;-89
2021/03/06 11:55:39;;;;;;;25.92;13.62;;;;;;;6.03;57.46;100414.95;4476110;78;21303;-90
2021/03/06 12:09:04;;;;;;;28.73;13.03;;;;;;;5.62;58.44;100398.58;4468885;78;21157;-88
2021/03/06 12:15:07;;;;;;;28.57;12.98;;;;;;;5.76;57.65;100383.80;4484956;78;21091;-90
2021/03/06 12:21:09;;;;;;;26.95;14.13;;;;;;;6.22;57.27;100379.38;4482527;78;21150;-91
2021/03/06 12:27:10;;;;;;;22.15;11.88;;;;;;;6.04;56.72;100368.19;4484527;78;21605;-90
2021/03/06 12:33:12;;;;;;;23.62;11.90;;;;;;;6.21;56.97;100370.99;4476748;78;21157;-89
2021/03/06 12:39:14;;;;;;;24.85;13.00;;;;;;;6.44;55.99;100367.08;4473214;78;21200;-90
2021/03/06 12:45:16;;;;;;;25.52;12.30;;;;;;;6.12;56.10;100369.58;4473828;78;21146;-90
2021/03/06 12:51:18;;;;;;;24.63;12.83;;;;;;;6.03;56.27;100366.56;4490856;78;21629;-90
2021/03/06 12:57:20;;;;;;;23.35;10.75;;;;;;;5.72;55.90;100347.50;4491835;78;21696;-88
2021/03/06 13:03:22;;;;;;;20.57;10.68;;;;;;;5.20;55.37;100346.09;4482508;78;21231;-89
2021/03/06 13:09:50;;;;;;;21.90;10.53;;;;;;;4.66;55.31;100347.81;4494056;78;21154;-89
2021/03/06 13:16:29;;;;;;;20.57;10.60;;;;;;;4.28;56.06;100337.47;4419898;78;62582;-88
2021/03/06 13:22:34;;;;;;;21.57;9.73;;;;;;;4.22;55.99;100334.07;4365074;80;21205;-89
2021/03/06 13:28:36;;;;;;;15.05;8.53;;;;;;;4.49;56.27;100330.01;4347887;80;21617;-88
2021/03/06 13:34:54;;;;;;;20.32;8.48;;;;;;;4.42;55.74;100327.42;4378722;80;21206;-88
2021/03/06 13:41:09;;;;;;;18.60;6.95;;;;;;;4.56;56.16;100313.30;4362216;80;21200;-87
2021/03/06 13:47:10;;;;;;;19.70;8.95;;;;;;;5.00;54.18;100301.20;4353956;80;21149;-89
2021/03/06 13:53:12;;;;;;;17.40;8.25;;;;;;;5.14;52.99;100306.60;4331282;80;21182;-88
2021/03/06 13:59:14;;;;;;;15.43;7.62;;;;;;;4.96;53.60;100302.13;4341164;80;21165;-87
2021/03/06 14:05:38;;;;;;;19.27;7.62;;;;;;;4.85;53.62;100294.77;4358072;80;21320;-88
2021/03/06 14:19:07;;;;;;;12.40;6.28;;;;;;;4.92;52.71;100282.15;4333383;80;21152;-89
2021/03/06 14:25:10;;;;;;;15.98;6.83;;;;;;;4.67;52.01;100272.66;4342762;80;22390;-89
2021/03/06 14:31:11;;;;;;;15.60;6.17;;;;;;;4.76;52.13;100268.91;4341794;80;21200;-88
2021/03/06 14:37:13;;;;;;;16.67;6.37;;;;;;;4.99;52.17;100266.23;4320504;80;21315;-88
2021/03/06 14:43:15;;;;;;;13.15;6.15;;;;;;;5.22;52.35;100249.64;4343135;80;21386;-88
2021/03/06 14:49:43;;;;;;;11.97;5.67;;;;;;;5.33;51.16;100252.89;4324769;81;21166;-88
2021/03/06 14:55:45;;;;;;;14.10;6.08;;;;;;;5.06;51.53;100248.40;4335873;81;21186;-88
2021/03/06 15:01:46;;;;;;;14.53;6.85;;;;;;;4.74;51.70;100243.21;4307347;81;21151;-89
2021/03/06 15:08:14;;;;;;;13.80;7.12;;;;;;;4.44;51.33;100238.46;4335144;81;21780;-88
2021/03/06 15:27:47;;;;;;;12.45;6.10;;;;;;;4.08;51.25;100234.89;4346975;81;21123;-88
2021/03/06 15:40:54;;;;;;;19.50;7.95;;;;;;;3.68;51.49;100231.06;4318373;81;26391;-88
2021/03/06 15:46:57;;;;;;;15.70;6.97;;;;;;;3.36;51.52;100233.84;4018409;86;21214;-88
2021/03/06 15:59:49;;;;;;;;;;;;;;;2.93;51.73;100231.84;4062826;86;21585;-89
2021/03/06 16:05:51;;;;;;;18.87;8.30;;;;;;;2.76;51.42;100227.52;4050311;86;20276;-88
2021/03/06 16:12:15;;;;;;;21.73;8.60;;;;;;;2.56;52.31;100229.72;4049463;86;21228;-88
2021/03/06 16:18:19;;;;;;;19.23;8.85;;;;;;;2.39;52.97;100226.73;4055033;86;21188;-88
2021/03/06 16:24:52;;;;;;;34.08;13.20;;;;;;;2.15;52.77;100240.28;4061074;86;21929;-88
2021/03/06 16:30:55;;;;;;;27.20;12.60;;;;;;;1.92;52.99;100238.41;4058011;86;21204;-89
2021/03/06 16:37:53;;;;;;;29.40;13.75;;;;;;;1.76;52.98;100241.02;4060806;86;21195;-89
2021/03/06 17:04:53;;;;;;;57.88;22.35;;;;;;;0.98;54.82;100248.52;4056295;86;21201;-89
2021/03/06 17:17:56;;;;;;;53.15;23.05;;;;;;;0.93;56.89;100266.08;3990331;87;21197;-88
2021/03/06 17:24:18;;;;;;;54.18;21.30;;;;;;;0.74;57.52;100268.36;3995119;87;21761;-88
2021/03/06 17:30:27;;;;;;;56.08;22.67;;;;;;;0.57;57.25;100269.28;4017170;87;21233;-88
2021/03/06 17:36:29;;;;;;;61.48;24.67;;;;;;;0.38;57.93;100269.12;3994397;87;21218;-89
2021/03/06 17:42:53;;;;;;;58.48;24.18;;;;;;;0.21;58.24;100262.47;3993582;87;22285;-88
2021/03/06 17:48:59;;;;;;;61.93;23.63;;;;;;;0.10;58.55;100275.17;4004801;86;21262;-88
2021/03/06 17:55:57;;;;;;;49.73;19.03;;;;;;;-0.01;59.13;100273.60;4029051;86;21240;-89
2021/03/06 18:01:58;;;;;;;51.37;22.07;;;;;;;-0.12;60.49;100272.84;4046335;86;21233;-89
2021/03/06 18:08:13;;;;;;;46.90;20.70;;;;;;;-0.24;60.71;100271.53;4034948;86;21650;-88
2021/03/06 18:14:14;;;;;;;56.73;22.87;;;;;;;-0.31;60.71;100269.12;4024747;86;21217;-89
2021/03/06 18:20:19;;;;;;;58.40;22.83;;;;;;;-0.36;60.95;100262.96;4021228;86;21238;-88
2021/03/06 18:26:20;;;;;;;61.33;23.23;;;;;;;-0.43;61.74;100251.66;4039006;86;21238;-87
2021/03/06 18:32:22;;;;;;;56.23;22.27;;;;;;;-0.51;61.91;100255.72;4035353;86;22171;-88
2021/03/06 18:38:59;;;;;;;50.57;21.10;;;;;;;-0.56;62.84;100246.31;3929809;85;10000313;-88
2021/03/06 18:45:25;;;;;;;47.63;20.07;;;;;;;-0.59;63.24;100242.00;4038118;86;21650;-88
2021/03/06 18:51:32;;;;;;;54.87;20.13;;;;;;;-0.61;63.67;100239.59;4035429;86;21239;-86
2021/03/06 18:57:44;;;;;;;51.83;21.63;;;;;;;-0.61;63.61;100232.08;4046002;86;21205;-87
2021/03/06 19:03:53;;;;;;;56.03;21.67;;;;;;;-0.66;63.50;100225.36;4048084;86;21213;-87
2021/03/06 19:09:57;;;;;;;52.10;20.63;;;;;;;-0.72;63.83;100219.73;4050611;86;21977;-86
2021/03/06 19:16:32;;;;;;;48.77;21.47;;;;;;;-0.75;64.11;100215.68;4049463;86;21205;-86
2021/03/06 19:29:03;;;;;;;55.93;21.23;;;;;;;-0.84;65.11;100211.94;4046236;86;22096;-85
2021/03/06 19:41:37;;;;;;;60.30;23.23;;;;;;;-0.92;65.75;100192.32;4029617;86;21189;-86
2021/03/06 19:47:39;;;;;;;51.47;23.40;;;;;;;-0.93;65.75;100186.69;4029811;84;21244;-85
2021/03/06 19:53:41;;;;;;;51.83;22.67;;;;;;;-1.00;66.03;100179.42;4035045;86;21236;-85
2021/03/06 19:59:43;;;;;;;55.03;24.40;;;;;;;-1.04;66.19;100186.95;4044412;86;21254;-85
2021/03/06 20:06:05;;;;;;;56.43;25.77;;;;;;;-1.07;66.24;100184.28;4027951;86;21836;-85
2021/03/06 20:12:14;;;;;;;57.13;23.10;;;;;;;-1.09;66.65;100181.05;4031465;86;21367;-83
2021/03/06 20:18:15;;;;;;;63.27;25.87;;;;;;;-1.10;67.20;100174.08;4046093;86;21385;-84
2021/03/06 20:38:25;;;;;;;43.23;19.77;;;;;;;-1.06;67.54;100175.13;4542671;76;23231;-83
2021/03/06 20:44:43;;;;;;;41.90;18.83;;;;;;;-1.12;67.16;100181.59;4538308;76;21196;-83
2021/03/06 20:50:54;;;;;;;44.70;18.63;;;;;;;-1.15;67.41;100179.45;4565872;76;21113;-83
2021/03/06 20:56:57;;;;;;;45.30;19.00;;;;;;;-1.21;67.68;100164.41;4569827;76;21319;-82
2021/03/06 21:02:58;;;;;;;43.40;18.20;;;;;;;-1.25;67.64;100165.22;4481761;78;21149;-84
2021/03/06 21:09:10;;;;;;;46.17;19.73;;;;;;;-1.25;67.59;100163.88;4474014;78;21195;-84
2021/03/06 21:15:12;;;;;;;46.23;18.07;;;;;;;-1.25;67.92;100170.04;4463160;78;21755;-84
2021/03/06 21:21:15;;;;;;;46.00;18.93;;;;;;;-1.32;67.86;100153.93;4506561;78;21755;-85
2021/03/06 21:27:40;;;;;;;50.70;21.10;;;;;;;-1.39;68.03;100153.41;4506887;78;21162;-84
2021/03/06 21:33:42;;;;;;;43.33;21.10;;;;;;;-1.42;68.03;100150.70;4484274;78;21189;-84
2021/03/06 21:39:43;;;;;;;57.40;24.63;;;;;;;-1.51;68.17;100142.11;4489775;77;21172;-84
2021/03/06 21:46:24;;;;;;;57.90;23.67;;;;;;;-1.57;68.54;100131.10;4414672;79;21359;-84
2021/03/06 21:52:29;;;;;;;55.10;21.60;;;;;;;-1.62;68.94;100131.38;4300265;77;10000148;-83
2021/03/06 21:58:39;;;;;;;49.30;21.40;;;;;;;-1.69;68.78;100125.98;4411585;77;21191;-84
2021/03/06 22:04:45;;;;;;;58.90;24.57;;;;;;;-1.77;68.90;100132.70;4412414;79;21179;-84
2021/03/06 22:10:52;;;;;;;57.13;23.63;;;;;;;-1.84;69.42;100128.66;4422641;77;21167;-83
2021/03/06 22:17:51;;;;;;;51.40;23.07;;;;;;;-1.85;69.32;100132.43;4426326;77;21161;-83
2021/03/06 22:31:06;;;;;;;52.20;21.10;;;;;;;-1.87;69.82;100130.54;4408811;77;21658;-83
2021/03/06 22:37:08;;;;;;;49.73;21.33;;;;;;;-1.91;70.05;100122.20;4423620;77;21198;-83
2021/03/06 22:43:11;;;;;;;49.07;22.43;;;;;;;-1.94;69.95;100116.56;4439357;78;21173;-84
2021/03/06 22:49:12;;;;;;;58.63;23.50;;;;;;;-1.97;70.19;100119.78;4434320;78;21527;-83
2021/03/06 22:55:14;;;;;;;59.90;24.03;;;;;;;-2.02;70.67;100115.21;4429106;78;21185;-84
2021/03/06 23:01:15;;;;;;;52.73;22.93;;;;;;;-2.01;70.98;100102.09;4435201;78;21325;-84
2021/03/06 23:07:18;;;;;;;51.07;23.70;;;;;;;-2.01;71.14;100098.06;4433197;78;21161;-82
2021/03/06 23:13:21;;;;;;;50.73;21.40;;;;;;;-2.05;70.90;100104.23;4424353;78;21154;-83
2021/03/06 23:19:25;;;;;;;51.47;22.13;;;;;;;-2.14;71.10;100099.91;4421512;78;21163;-84
2021/03/06 23:25:27;;;;;;;51.50;21.50;;;;;;;-2.21;71.44;100099.34;4575448;75;21180;-83
2021/03/06 23:31:29;;;;;;;66.30;25.77;;;;;;;-2.22;71.08;100105.78;4597108;75;21157;-83
2021/03/06 23:37:33;;;;;;;246.20;56.77;;;;;;;-2.31;72.01;100101.20;4597821;76;21157;-83
2021/03/06 23:43:37;;;;;;;128.30;35.23;;;;;;;-2.36;71.47;100109.22;4591285;76;21714;-83
2021/03/06 23:49:38;;;;;;;79.80;28.83;;;;;;;-2.44;72.07;100102.50;4590874;75;21536;-83
2021/03/06 23:55:40;;;;;;;83.27;29.50;;;;;;;-2.44;72.39;100096.32;4593264;75;21535;-83
